sensor_id;sensor_type;location;lat;lon;timestamp;pressure;altitude;pressure_sealevel;temperature
64904;BMP280;51401;48.882;12.598;2023-04-08T00:00:43;95999.03;;;7.12
64904;BMP280;51401;48.882;12.598;2023-04-08T00:03:09;95973.31;;;7.09
64904;BMP280;51401;48.882;12.598;2023-04-08T00:05:34;95977.69;;;7.12
64904;BMP280;51401;48.882;12.598;2023-04-08T00:07:59;95953.84;;;7.08
64904;BMP280;51401;48.882;12.598;2023-04-08T00:10:25;95925.84;;;7.10
64904;BMP280;51401;48.882;12.598;2023-04-08T00:12:51;95943.59;;;7.01
64904;BMP280;51401;48.882;12.598;2023-04-08T00:15:16;95935.97;;;6.97
64904;BMP280;51401;48.882;12.598;2023-04-08T00:17:42;95915.03;;;6.92
64904;BMP280;51401;48.882;12.598;2023-04-08T00:20:07;95936.38;;;6.89
64904;BMP280;51401;48.882;12.598;2023-04-08T00:22:34;95921.03;;;6.82
64904;BMP280;51401;48.882;12.598;2023-04-08T00:25:00;95893.94;;;6.74
64904;BMP280;51401;48.882;12.598;2023-04-08T00:27:26;95880.03;;;6.68
64904;BMP280;51401;48.882;12.598;2023-04-08T00:29:52;95858.81;;;6.57
64904;BMP280;51401;48.882;12.598;2023-04-08T00:32:17;95832.41;;;6.53
64904;BMP280;51401;48.882;12.598;2023-04-08T00:34:43;95794.31;;;6.42
64904;BMP280;51401;48.882;12.598;2023-04-08T00:37:08;95784.13;;;6.38
64904;BMP280;51401;48.882;12.598;2023-04-08T00:39:33;95784.13;;;6.35
64904;BMP280;51401;48.882;12.598;2023-04-08T00:41:59;95781.97;;;6.30
64904;BMP280;51401;48.882;12.598;2023-04-08T00:44:26;95807.28;;;6.35
64904;BMP280;51401;48.882;12.598;2023-04-08T00:46:51;95806.69;;;6.24
64904;BMP280;51401;48.882;12.598;2023-04-08T00:49:16;95803.38;;;6.23
64904;BMP280;51401;48.882;12.598;2023-04-08T00:51:42;95834.91;;;6.27
64904;BMP280;51401;48.882;12.598;2023-04-08T00:54:08;95862.38;;;6.37
64904;BMP280;51401;48.882;12.598;2023-04-08T00:56:33;95872.19;;;6.46
64904;BMP280;51401;48.882;12.598;2023-04-08T00:58:59;95897.94;;;6.46
64904;BMP280;51401;48.882;12.598;2023-04-08T01:04:27;95879.34;;;6.31
64904;BMP280;51401;48.882;12.598;2023-04-08T01:07:02;95874.19;;;6.35
64904;BMP280;51401;48.882;12.598;2023-04-08T01:09:32;95870.97;;;6.24
64904;BMP280;51401;48.882;12.598;2023-04-08T01:12:02;95872.47;;;6.21
64904;BMP280;51401;48.882;12.598;2023-04-08T01:14:30;95860.78;;;6.14
64904;BMP280;51401;48.882;12.598;2023-04-08T01:16:59;95872.88;;;6.16
64904;BMP280;51401;48.882;12.598;2023-04-08T01:19:28;95880.22;;;6.15
64904;BMP280;51401;48.882;12.598;2023-04-08T01:22:01;95880.31;;;6.08
64904;BMP280;51401;48.882;12.598;2023-04-08T01:24:30;95872.63;;;6.04
64904;BMP280;51401;48.882;12.598;2023-04-08T01:26:58;95890.63;;;6.04
64904;BMP280;51401;48.882;12.598;2023-04-08T01:29:25;95894.75;;;5.98
64904;BMP280;51401;48.882;12.598;2023-04-08T01:31:52;95869.81;;;5.92
64904;BMP280;51401;48.882;12.598;2023-04-08T01:34:19;95891.19;;;5.85
64904;BMP280;51401;48.882;12.598;2023-04-08T01:36:46;95882.75;;;5.85
64904;BMP280;51401;48.882;12.598;2023-04-08T01:39:14;95903.63;;;5.87
64904;BMP280;51401;48.882;12.598;2023-04-08T01:41:41;95908.84;;;5.84
64904;BMP280;51401;48.882;12.598;2023-04-08T01:44:08;95880.81;;;5.92
64904;BMP280;51401;48.882;12.598;2023-04-08T01:46:34;95905.47;;;5.90
64904;BMP280;51401;48.882;12.598;2023-04-08T01:49:00;95895.91;;;5.90
64904;BMP280;51401;48.882;12.598;2023-04-08T01:51:27;95917.88;;;5.98
64904;BMP280;51401;48.882;12.598;2023-04-08T01:53:53;95943.50;;;6.09
64904;BMP280;51401;48.882;12.598;2023-04-08T01:56:20;95945.34;;;6.05
64904;BMP280;51401;48.882;12.598;2023-04-08T01:58:50;95952.63;;;6.13
64904;BMP280;51401;48.882;12.598;2023-04-08T02:01:19;95936.88;;;6.11
64904;BMP280;51401;48.882;12.598;2023-04-08T02:03:46;95934.94;;;6.18
64904;BMP280;51401;48.882;12.598;2023-04-08T02:06:12;95923.22;;;6.14
64904;BMP280;51401;48.882;12.598;2023-04-08T02:08:37;95905.03;;;5.98
64904;BMP280;51401;48.882;12.598;2023-04-08T02:11:02;95896.97;;;5.93
64904;BMP280;51401;48.882;12.598;2023-04-08T02:13:29;95880.50;;;5.87
64904;BMP280;51401;48.882;12.598;2023-04-08T02:16:18;95873.53;;;5.87
64904;BMP280;51401;48.882;12.598;2023-04-08T02:18:54;95876.81;;;5.91
64904;BMP280;51401;48.882;12.598;2023-04-08T02:21:21;95860.25;;;5.92
64904;BMP280;51401;48.882;12.598;2023-04-08T02:23:51;95847.78;;;5.91
64904;BMP280;51401;48.882;12.598;2023-04-08T02:26:17;95861.00;;;5.93
64904;BMP280;51401;48.882;12.598;2023-04-08T02:28:43;95870.19;;;5.90
64904;BMP280;51401;48.882;12.598;2023-04-08T02:31:11;95868.41;;;5.87
64904;BMP280;51401;48.882;12.598;2023-04-08T02:33:40;95852.28;;;5.84
64904;BMP280;51401;48.882;12.598;2023-04-08T02:36:07;95836.53;;;5.78
64904;BMP280;51401;48.882;12.598;2023-04-08T02:38:32;95819.28;;;5.75
64904;BMP280;51401;48.882;12.598;2023-04-08T02:40:57;95823.31;;;5.80
64904;BMP280;51401;48.882;12.598;2023-04-08T02:43:24;95827.78;;;5.72
64904;BMP280;51401;48.882;12.598;2023-04-08T02:45:55;95847.28;;;5.66
64904;BMP280;51401;48.882;12.598;2023-04-08T02:48:21;95845.88;;;5.62
64904;BMP280;51401;48.882;12.598;2023-04-08T02:50:46;95848.75;;;5.67
64904;BMP280;51401;48.882;12.598;2023-04-08T02:53:11;95867.50;;;5.64
64904;BMP280;51401;48.882;12.598;2023-04-08T02:55:37;95864.22;;;5.60
64904;BMP280;51401;48.882;12.598;2023-04-08T02:58:03;95885.50;;;5.61
64904;BMP280;51401;48.882;12.598;2023-04-08T03:00:29;95867.88;;;5.63
64904;BMP280;51401;48.882;12.598;2023-04-08T03:02:54;95897.25;;;5.62
64904;BMP280;51401;48.882;12.598;2023-04-08T03:05:19;95898.78;;;5.56
64904;BMP280;51401;48.882;12.598;2023-04-08T03:07:45;95891.44;;;5.51
64904;BMP280;51401;48.882;12.598;2023-04-08T03:10:11;95900.28;;;5.50
64904;BMP280;51401;48.882;12.598;2023-04-08T03:12:36;95896.22;;;5.52
64904;BMP280;51401;48.882;12.598;2023-04-08T03:15:01;95896.59;;;5.51
64904;BMP280;51401;48.882;12.598;2023-04-08T03:17:27;95901.72;;;5.51
64904;BMP280;51401;48.882;12.598;2023-04-08T03:19:52;95916.41;;;5.54
64904;BMP280;51401;48.882;12.598;2023-04-08T03:22:18;95918.22;;;5.57
64904;BMP280;51401;48.882;12.598;2023-04-08T03:24:43;95915.66;;;5.57
64904;BMP280;51401;48.882;12.598;2023-04-08T03:27:08;95934.69;;;5.59
64904;BMP280;51401;48.882;12.598;2023-04-08T03:29:34;95950.16;;;5.56
64904;BMP280;51401;48.882;12.598;2023-04-08T03:31:59;95944.25;;;5.59
64904;BMP280;51401;48.882;12.598;2023-04-08T03:34:24;95936.88;;;5.68
64904;BMP280;51401;48.882;12.598;2023-04-08T03:36:50;95955.22;;;5.70
64904;BMP280;51401;48.882;12.598;2023-04-08T03:39:15;95915.19;;;5.69
64904;BMP280;51401;48.882;12.598;2023-04-08T03:41:41;95945.66;;;5.70
64904;BMP280;51401;48.882;12.598;2023-04-08T03:44:06;95958.88;;;5.69
64904;BMP280;51401;48.882;12.598;2023-04-08T03:46:31;95971.34;;;5.70
64904;BMP280;51401;48.882;12.598;2023-04-08T03:48:56;95979.00;;;5.77
64904;BMP280;51401;48.882;12.598;2023-04-08T03:51:22;95980.47;;;5.78
64904;BMP280;51401;48.882;12.598;2023-04-08T03:53:47;95973.13;;;5.73
64904;BMP280;51401;48.882;12.598;2023-04-08T03:56:13;95975.69;;;5.77
64904;BMP280;51401;48.882;12.598;2023-04-08T03:58:38;95986.34;;;5.79
64904;BMP280;51401;48.882;12.598;2023-04-08T04:01:04;95976.41;;;5.81
64904;BMP280;51401;48.882;12.598;2023-04-08T04:03:29;95989.63;;;5.83
64904;BMP280;51401;48.882;12.598;2023-04-08T04:05:54;96016.81;;;5.84
64904;BMP280;51401;48.882;12.598;2023-04-08T04:08:20;96016.38;;;5.88
64904;BMP280;51401;48.882;12.598;2023-04-08T04:10:45;96029.28;;;5.82
64904;BMP280;51401;48.882;12.598;2023-04-08T04:13:10;96010.19;;;5.83
64904;BMP280;51401;48.882;12.598;2023-04-08T04:15:39;96027.44;;;5.82
64904;BMP280;51401;48.882;12.598;2023-04-08T04:18:06;96014.59;;;5.85
64904;BMP280;51401;48.882;12.598;2023-04-08T04:20:31;95992.19;;;5.83
64904;BMP280;51401;48.882;12.598;2023-04-08T04:22:56;95986.69;;;5.84
64904;BMP280;51401;48.882;12.598;2023-04-08T04:25:22;96008.34;;;5.83
64904;BMP280;51401;48.882;12.598;2023-04-08T04:27:47;96026.28;;;5.93
64904;BMP280;51401;48.882;12.598;2023-04-08T04:30:13;96011.59;;;5.87
64904;BMP280;51401;48.882;12.598;2023-04-08T04:32:40;96002.38;;;5.93
64904;BMP280;51401;48.882;12.598;2023-04-08T04:35:08;96011.94;;;5.92
64904;BMP280;51401;48.882;12.598;2023-04-08T04:37:33;95999.09;;;5.92
64904;BMP280;51401;48.882;12.598;2023-04-08T04:39:58;96002.34;;;6.00
64904;BMP280;51401;48.882;12.598;2023-04-08T04:42:23;96005.63;;;6.04
64904;BMP280;51401;48.882;12.598;2023-04-08T04:44:49;95993.13;;;6.02
64904;BMP280;51401;48.882;12.598;2023-04-08T04:47:14;96015.91;;;6.07
64904;BMP280;51401;48.882;12.598;2023-04-08T04:49:40;96029.88;;;5.99
64904;BMP280;51401;48.882;12.598;2023-04-08T04:52:06;96028.34;;;6.09
64904;BMP280;51401;48.882;12.598;2023-04-08T04:54:31;96023.91;;;6.13
64904;BMP280;51401;48.882;12.598;2023-04-08T04:56:56;96045.22;;;6.13
64904;BMP280;51401;48.882;12.598;2023-04-08T04:59:22;96054.06;;;6.12
64904;BMP280;51401;48.882;12.598;2023-04-08T05:01:47;96060.59;;;6.20
64904;BMP280;51401;48.882;12.598;2023-04-08T05:04:12;96026.06;;;6.21
64904;BMP280;51401;48.882;12.598;2023-04-08T05:06:38;96034.16;;;6.23
64904;BMP280;51401;48.882;12.598;2023-04-08T05:09:03;96017.53;;;6.31
64904;BMP280;51401;48.882;12.598;2023-04-08T05:11:28;95988.59;;;6.20
64904;BMP280;51401;48.882;12.598;2023-04-08T05:13:53;96014.97;;;6.27
64904;BMP280;51401;48.882;12.598;2023-04-08T05:16:19;96042.03;;;6.46
64904;BMP280;51401;48.882;12.598;2023-04-08T05:18:44;96033.72;;;6.28
64904;BMP280;51401;48.882;12.598;2023-04-08T05:21:09;96046.91;;;6.33
64904;BMP280;51401;48.882;12.598;2023-04-08T05:23:35;96061.91;;;6.42
64904;BMP280;51401;48.882;12.598;2023-04-08T05:26:00;96059.72;;;6.40
64904;BMP280;51401;48.882;12.598;2023-04-08T05:28:25;96006.88;;;6.29
64904;BMP280;51401;48.882;12.598;2023-04-08T05:30:51;96044.31;;;6.37
64904;BMP280;51401;48.882;12.598;2023-04-08T05:33:17;96012.38;;;6.31
64904;BMP280;51401;48.882;12.598;2023-04-08T05:35:43;95989.13;;;6.41
64904;BMP280;51401;48.882;12.598;2023-04-08T05:38:08;95965.59;;;6.43
64904;BMP280;51401;48.882;12.598;2023-04-08T05:40:33;95942.88;;;6.38
64904;BMP280;51401;48.882;12.598;2023-04-08T05:42:59;95883.75;;;6.34
64904;BMP280;51401;48.882;12.598;2023-04-08T05:45:24;95705.59;;;6.27
64904;BMP280;51401;48.882;12.598;2023-04-08T05:47:50;95508.69;;;6.26
64904;BMP280;51401;48.882;12.598;2023-04-08T05:50:15;95442.16;;;6.05
64904;BMP280;51401;48.882;12.598;2023-04-08T05:52:42;95026.19;;;5.84
64904;BMP280;51401;48.882;12.598;2023-04-08T05:55:08;94619.66;;;5.77
64904;BMP280;51401;48.882;12.598;2023-04-08T05:57:33;94283.88;;;5.78
64904;BMP280;51401;48.882;12.598;2023-04-08T05:59:58;93962.34;;;5.61
64904;BMP280;51401;48.882;12.598;2023-04-08T06:02:24;93480.00;;;5.54
64904;BMP280;51401;48.882;12.598;2023-04-08T06:04:49;92958.44;;;5.17
64904;BMP280;51401;48.882;12.598;2023-04-08T06:07:15;92502.22;;;5.29
64904;BMP280;51401;48.882;12.598;2023-04-08T06:09:40;91847.06;;;5.19
64904;BMP280;51401;48.882;12.598;2023-04-08T06:12:05;91330.78;;;4.86
64904;BMP280;51401;48.882;12.598;2023-04-08T06:14:30;90762.78;;;4.81
64904;BMP280;51401;48.882;12.598;2023-04-08T06:16:56;90046.03;;;4.70
64904;BMP280;51401;48.882;12.598;2023-04-08T06:19:21;89214.72;;;4.80
64904;BMP280;51401;48.882;12.598;2023-04-08T06:21:46;88305.34;;;4.91
64904;BMP280;51401;48.882;12.598;2023-04-08T06:24:12;86949.50;;;5.05
64904;BMP280;51401;48.882;12.598;2023-04-08T06:26:37;85131.81;;;5.12
64904;BMP280;51401;48.882;12.598;2023-04-08T06:29:02;83260.72;;;5.12
64904;BMP280;51401;48.882;12.598;2023-04-08T06:31:29;80867.91;;;5.21
64904;BMP280;51401;48.882;12.598;2023-04-08T06:33:54;78810.56;;;5.20
64904;BMP280;51401;48.882;12.598;2023-04-08T06:36:20;77075.78;;;5.07
64904;BMP280;51401;48.882;12.598;2023-04-08T06:38:45;75434.44;;;4.99
64904;BMP280;51401;48.882;12.598;2023-04-08T06:41:10;73859.47;;;4.94
64904;BMP280;51401;48.882;12.598;2023-04-08T06:43:36;71976.06;;;4.99
64904;BMP280;51401;48.882;12.598;2023-04-08T06:46:02;70558.47;;;4.97
64904;BMP280;51401;48.882;12.598;2023-04-08T06:48:27;69381.81;;;5.00
64904;BMP280;51401;48.882;12.598;2023-04-08T06:50:58;69009.06;;;4.84
64904;BMP280;51401;48.882;12.598;2023-04-08T06:53:24;67957.34;;;5.05
64904;BMP280;51401;48.882;12.598;2023-04-08T06:55:50;67782.72;;;4.93
64904;BMP280;51401;48.882;12.598;2023-04-08T06:58:16;67624.91;;;4.83
64904;BMP280;51401;48.882;12.598;2023-04-08T07:00:41;66785.44;;;4.97
64904;BMP280;51401;48.882;12.598;2023-04-08T07:03:07;66197.97;;;4.99
64904;BMP280;51401;48.882;12.598;2023-04-08T07:05:34;66104.97;;;4.89
64904;BMP280;51401;48.882;12.598;2023-04-08T07:07:59;65535.97;;;5.00
64904;BMP280;51401;48.882;12.598;2023-04-08T07:10:25;64797.03;;;5.13
64904;BMP280;51401;48.882;12.598;2023-04-08T07:12:50;64522.88;;;5.05
64904;BMP280;51401;48.882;12.598;2023-04-08T07:15:16;63683.69;;;5.15
64904;BMP280;51401;48.882;12.598;2023-04-08T07:17:42;63091.31;;;5.14
64904;BMP280;51401;48.882;12.598;2023-04-08T07:20:08;62583.81;;;5.22
64904;BMP280;51401;48.882;12.598;2023-04-08T07:22:33;62191.81;;;5.32
64904;BMP280;51401;48.882;12.598;2023-04-08T07:24:58;62292.84;;;5.23
64904;BMP280;51401;48.882;12.598;2023-04-08T07:27:24;62444.84;;;5.25
64904;BMP280;51401;48.882;12.598;2023-04-08T07:29:52;62745.03;;;5.43
64904;BMP280;51401;48.882;12.598;2023-04-08T07:32:18;63280.56;;;5.51
64904;BMP280;51401;48.882;12.598;2023-04-08T07:34:44;63636.38;;;5.64
64904;BMP280;51401;48.882;12.598;2023-04-08T07:37:09;63961.00;;;5.83
64904;BMP280;51401;48.882;12.598;2023-04-08T07:39:34;64572.28;;;6.00
64904;BMP280;51401;48.882;12.598;2023-04-08T07:42:00;65440.69;;;6.14
64904;BMP280;51401;48.882;12.598;2023-04-08T07:44:25;66463.66;;;6.27
64904;BMP280;51401;48.882;12.598;2023-04-08T07:46:50;67725.03;;;6.33
64904;BMP280;51401;48.882;12.598;2023-04-08T07:49:16;70183.63;;;5.79
64904;BMP280;51401;48.882;12.598;2023-04-08T07:51:41;71111.03;;;5.98
64904;BMP280;51401;48.882;12.598;2023-04-08T07:54:07;72268.81;;;6.05
64904;BMP280;51401;48.882;12.598;2023-04-08T07:56:32;73794.16;;;5.82
64904;BMP280;51401;48.882;12.598;2023-04-08T07:58:57;74409.78;;;5.99
64904;BMP280;51401;48.882;12.598;2023-04-08T08:01:23;75148.56;;;6.11
64904;BMP280;51401;48.882;12.598;2023-04-08T08:03:49;76314.69;;;5.99
64904;BMP280;51401;48.882;12.598;2023-04-08T08:06:15;76904.56;;;6.23
64904;BMP280;51401;48.882;12.598;2023-04-08T08:08:41;77857.56;;;6.15
64904;BMP280;51401;48.882;12.598;2023-04-08T08:11:06;78591.47;;;6.23
64904;BMP280;51401;48.882;12.598;2023-04-08T08:13:32;79292.25;;;6.15
64904;BMP280;51401;48.882;12.598;2023-04-08T08:15:57;79533.47;;;6.26
64904;BMP280;51401;48.882;12.598;2023-04-08T08:18:23;79845.84;;;6.37
64904;BMP280;51401;48.882;12.598;2023-04-08T08:20:48;80346.09;;;6.45
64904;BMP280;51401;48.882;12.598;2023-04-08T08:23:13;81040.84;;;6.18
64904;BMP280;51401;48.882;12.598;2023-04-08T08:25:38;81649.75;;;6.10
64904;BMP280;51401;48.882;12.598;2023-04-08T08:28:04;81970.75;;;6.13
64904;BMP280;51401;48.882;12.598;2023-04-08T08:30:29;82050.38;;;6.32
64904;BMP280;51401;48.882;12.598;2023-04-08T08:32:54;82337.50;;;6.38
64904;BMP280;51401;48.882;12.598;2023-04-08T08:35:23;82923.38;;;6.01
64904;BMP280;51401;48.882;12.598;2023-04-08T08:37:48;82787.03;;;6.19
64904;BMP280;51401;48.882;12.598;2023-04-08T08:40:13;82805.63;;;6.34
64904;BMP280;51401;48.882;12.598;2023-04-08T08:42:40;83090.13;;;6.28
64904;BMP280;51401;48.882;12.598;2023-04-08T08:45:06;83144.97;;;6.35
64904;BMP280;51401;48.882;12.598;2023-04-08T08:47:32;83106.66;;;6.49
64904;BMP280;51401;48.882;12.598;2023-04-08T08:49:57;83562.94;;;6.17
64904;BMP280;51401;48.882;12.598;2023-04-08T08:52:22;83449.47;;;6.45
64904;BMP280;51401;48.882;12.598;2023-04-08T08:54:56;83717.38;;;6.38
64904;BMP280;51401;48.882;12.598;2023-04-08T08:57:21;84146.75;;;6.25
64904;BMP280;51401;48.882;12.598;2023-04-08T08:59:47;84397.56;;;6.41
64904;BMP280;51401;48.882;12.598;2023-04-08T09:02:26;84520.53;;;6.45
64904;BMP280;51401;48.882;12.598;2023-04-08T09:04:57;84696.09;;;6.46
64904;BMP280;51401;48.882;12.598;2023-04-08T09:07:24;84549.72;;;6.67
64904;BMP280;51401;48.882;12.598;2023-04-08T09:09:52;84652.75;;;6.83
64904;BMP280;51401;48.882;12.598;2023-04-08T09:12:17;84796.94;;;6.92
64904;BMP280;51401;48.882;12.598;2023-04-08T09:14:43;84814.06;;;7.11
64904;BMP280;51401;48.882;12.598;2023-04-08T09:17:08;84948.66;;;7.24
64904;BMP280;51401;48.882;12.598;2023-04-08T09:19:34;85316.34;;;7.28
64904;BMP280;51401;48.882;12.598;2023-04-08T09:22:11;85682.28;;;7.53
64904;BMP280;51401;48.882;12.598;2023-04-08T09:24:37;86097.34;;;7.76
64904;BMP280;51401;48.882;12.598;2023-04-08T09:27:03;86425.16;;;7.88
64904;BMP280;51401;48.882;12.598;2023-04-08T09:29:29;87152.53;;;7.55
64904;BMP280;51401;48.882;12.598;2023-04-08T09:32:09;87536.09;;;7.94
64904;BMP280;51401;48.882;12.598;2023-04-08T09:34:38;87796.84;;;7.85
64904;BMP280;51401;48.882;12.598;2023-04-08T09:37:09;88078.00;;;7.75
64904;BMP280;51401;48.882;12.598;2023-04-08T09:39:35;88429.56;;;7.72
64904;BMP280;51401;48.882;12.598;2023-04-08T09:42:04;88450.81;;;7.73
64904;BMP280;51401;48.882;12.598;2023-04-08T09:44:33;88599.38;;;7.61
64904;BMP280;51401;48.882;12.598;2023-04-08T09:47:18;88491.38;;;7.87
64904;BMP280;51401;48.882;12.598;2023-04-08T09:49:57;88554.91;;;7.58
64904;BMP280;51401;48.882;12.598;2023-04-08T09:52:32;88680.25;;;7.58
64904;BMP280;51401;48.882;12.598;2023-04-08T09:55:04;88976.97;;;7.53
64904;BMP280;51401;48.882;12.598;2023-04-08T09:57:54;89011.63;;;7.97
64904;BMP280;51401;48.882;12.598;2023-04-08T10:00:29;89418.88;;;8.07
64904;BMP280;51401;48.882;12.598;2023-04-08T10:03:10;89742.38;;;7.67
64904;BMP280;51401;48.882;12.598;2023-04-08T10:05:40;90016.84;;;8.17
64904;BMP280;51401;48.882;12.598;2023-04-08T10:08:06;90334.69;;;8.40
64904;BMP280;51401;48.882;12.598;2023-04-08T10:10:38;90491.47;;;8.43
64904;BMP280;51401;48.882;12.598;2023-04-08T10:13:04;90765.34;;;8.37
64904;BMP280;51401;48.882;12.598;2023-04-08T10:15:51;90750.44;;;8.59
64904;BMP280;51401;48.882;12.598;2023-04-08T10:18:36;90710.59;;;9.08
64904;BMP280;51401;48.882;12.598;2023-04-08T10:21:02;91262.72;;;9.23
64904;BMP280;51401;48.882;12.598;2023-04-08T10:23:54;91488.41;;;9.65
64904;BMP280;51401;48.882;12.598;2023-04-08T10:26:31;91746.84;;;9.87
64904;BMP280;51401;48.882;12.598;2023-04-08T10:31:47;91963.81;;;10.12
64904;BMP280;51401;48.882;12.598;2023-04-08T10:34:17;92125.50;;;10.00
64904;BMP280;51401;48.882;12.598;2023-04-08T10:36:43;92098.97;;;10.66
64904;BMP280;51401;48.882;12.598;2023-04-08T10:39:09;92330.69;;;11.00
64904;BMP280;51401;48.882;12.598;2023-04-08T10:44:29;92516.03;;;11.21
64904;BMP280;51401;48.882;12.598;2023-04-08T10:46:54;92613.28;;;11.73
64904;BMP280;51401;48.882;12.598;2023-04-08T10:49:39;93051.63;;;11.57
64904;BMP280;51401;48.882;12.598;2023-04-08T10:52:06;93051.16;;;11.35
64904;BMP280;51401;48.882;12.598;2023-04-08T10:54:32;92947.91;;;12.11
64904;BMP280;51401;48.882;12.598;2023-04-08T10:56:57;93113.25;;;12.11
64904;BMP280;51401;48.882;12.598;2023-04-08T10:59:30;93335.69;;;11.42
64904;BMP280;51401;48.882;12.598;2023-04-08T11:02:31;93016.56;;;11.92
64904;BMP280;51401;48.882;12.598;2023-04-08T11:04:57;93243.22;;;11.60
64904;BMP280;51401;48.882;12.598;2023-04-08T11:07:24;93450.31;;;11.13
64904;BMP280;51401;48.882;12.598;2023-04-08T11:09:49;93242.94;;;10.39
64904;BMP280;51401;48.882;12.598;2023-04-08T11:12:15;93139.16;;;10.48
64904;BMP280;51401;48.882;12.598;2023-04-08T11:14:43;93235.66;;;10.32
64904;BMP280;51401;48.882;12.598;2023-04-08T11:17:09;93091.09;;;10.18
64904;BMP280;51401;48.882;12.598;2023-04-08T11:19:35;93105.72;;;10.10
64904;BMP280;51401;48.882;12.598;2023-04-08T11:22:01;93126.94;;;9.92
64904;BMP280;51401;48.882;12.598;2023-04-08T11:24:27;92903.72;;;9.84
64904;BMP280;51401;48.882;12.598;2023-04-08T11:26:53;93044.03;;;9.74
64904;BMP280;51401;48.882;12.598;2023-04-08T11:29:19;93099.53;;;9.51
64904;BMP280;51401;48.882;12.598;2023-04-08T11:31:45;92987.91;;;9.69
64904;BMP280;51401;48.882;12.598;2023-04-08T11:34:21;92987.50;;;9.49
64904;BMP280;51401;48.882;12.598;2023-04-08T11:36:46;92858.19;;;9.76
64904;BMP280;51401;48.882;12.598;2023-04-08T11:39:11;92780.59;;;9.81
64904;BMP280;51401;48.882;12.598;2023-04-08T11:41:38;93027.91;;;9.52
64904;BMP280;51401;48.882;12.598;2023-04-08T11:44:04;93082.88;;;9.47
64904;BMP280;51401;48.882;12.598;2023-04-08T11:46:31;92896.44;;;9.43
64904;BMP280;51401;48.882;12.598;2023-04-08T11:49:07;92842.53;;;9.23
64904;BMP280;51401;48.882;12.598;2023-04-08T11:51:33;92884.66;;;8.86
64904;BMP280;51401;48.882;12.598;2023-04-08T11:54:03;92789.13;;;8.97
64904;BMP280;51401;48.882;12.598;2023-04-08T11:56:28;92783.06;;;8.89
64904;BMP280;51401;48.882;12.598;2023-04-08T11:58:54;92890.28;;;8.95
64904;BMP280;51401;48.882;12.598;2023-04-08T12:01:20;92906.06;;;8.70
64904;BMP280;51401;48.882;12.598;2023-04-08T12:06:20;92770.78;;;9.11
64904;BMP280;51401;48.882;12.598;2023-04-08T12:08:45;92797.50;;;9.13
64904;BMP280;51401;48.882;12.598;2023-04-08T12:11:12;92977.56;;;9.02
64904;BMP280;51401;48.882;12.598;2023-04-08T12:13:40;92991.88;;;8.98
64904;BMP280;51401;48.882;12.598;2023-04-08T12:16:05;92989.53;;;8.89
64904;BMP280;51401;48.882;12.598;2023-04-08T12:18:30;93016.06;;;8.73
64904;BMP280;51401;48.882;12.598;2023-04-08T12:20:56;93020.03;;;8.63
64904;BMP280;51401;48.882;12.598;2023-04-08T12:23:36;92899.72;;;8.71
64904;BMP280;51401;48.882;12.598;2023-04-08T12:26:37;92855.84;;;8.82
64904;BMP280;51401;48.882;12.598;2023-04-08T12:29:02;92779.81;;;8.83
64904;BMP280;51401;48.882;12.598;2023-04-08T12:31:28;92745.03;;;8.95
64904;BMP280;51401;48.882;12.598;2023-04-08T12:33:53;92821.06;;;8.99
64904;BMP280;51401;48.882;12.598;2023-04-08T12:36:18;92919.81;;;9.05
64904;BMP280;51401;48.882;12.598;2023-04-08T12:38:44;93040.47;;;8.99
64904;BMP280;51401;48.882;12.598;2023-04-08T12:41:12;93039.25;;;9.05
64904;BMP280;51401;48.882;12.598;2023-04-08T12:43:37;92934.13;;;9.01
64904;BMP280;51401;48.882;12.598;2023-04-08T12:46:03;93069.06;;;9.12
64904;BMP280;51401;48.882;12.598;2023-04-08T12:48:28;93157.56;;;9.23
64904;BMP280;51401;48.882;12.598;2023-04-08T12:50:54;93266.00;;;9.18
64904;BMP280;51401;48.882;12.598;2023-04-08T12:53:28;93288.31;;;9.21
64904;BMP280;51401;48.882;12.598;2023-04-08T12:55:53;93259.63;;;9.03
64904;BMP280;51401;48.882;12.598;2023-04-08T12:58:30;93265.97;;;9.02
64904;BMP280;51401;48.882;12.598;2023-04-08T13:00:55;93263.88;;;9.05
64904;BMP280;51401;48.882;12.598;2023-04-08T13:03:21;93205.44;;;9.03
64904;BMP280;51401;48.882;12.598;2023-04-08T13:05:49;93166.00;;;8.91
64904;BMP280;51401;48.882;12.598;2023-04-08T13:08:14;93123.72;;;8.89
64904;BMP280;51401;48.882;12.598;2023-04-08T13:10:41;93165.50;;;8.82
64904;BMP280;51401;48.882;12.598;2023-04-08T13:13:06;93206.03;;;8.65
64904;BMP280;51401;48.882;12.598;2023-04-08T13:15:32;93166.16;;;8.77
64904;BMP280;51401;48.882;12.598;2023-04-08T13:17:57;93134.28;;;8.74
64904;BMP280;51401;48.882;12.598;2023-04-08T13:20:22;93094.16;;;8.73
64904;BMP280;51401;48.882;12.598;2023-04-08T13:22:52;92976.41;;;8.65
64904;BMP280;51401;48.882;12.598;2023-04-08T13:25:18;93011.81;;;8.59
64904;BMP280;51401;48.882;12.598;2023-04-08T13:27:43;93026.63;;;8.64
64904;BMP280;51401;48.882;12.598;2023-04-08T13:30:09;92938.66;;;8.51
64904;BMP280;51401;48.882;12.598;2023-04-08T13:32:34;93023.56;;;8.55
64904;BMP280;51401;48.882;12.598;2023-04-08T13:35:00;93086.59;;;8.48
64904;BMP280;51401;48.882;12.598;2023-04-08T13:37:25;92943.13;;;8.35
64904;BMP280;51401;48.882;12.598;2023-04-08T13:39:51;92945.72;;;8.45
64904;BMP280;51401;48.882;12.598;2023-04-08T13:42:19;92876.28;;;8.42
64904;BMP280;51401;48.882;12.598;2023-04-08T13:44:45;93044.88;;;8.55
64904;BMP280;51401;48.882;12.598;2023-04-08T13:47:10;93127.44;;;8.66
64904;BMP280;51401;48.882;12.598;2023-04-08T13:49:42;93138.25;;;8.70
64904;BMP280;51401;48.882;12.598;2023-04-08T13:52:07;93103.31;;;8.74
64904;BMP280;51401;48.882;12.598;2023-04-08T13:54:33;93117.88;;;8.83
64904;BMP280;51401;48.882;12.598;2023-04-08T13:56:58;93178.16;;;8.80
64904;BMP280;51401;48.882;12.598;2023-04-08T13:59:23;93126.50;;;8.69
64904;BMP280;51401;48.882;12.598;2023-04-08T14:01:49;93046.56;;;8.85
64904;BMP280;51401;48.882;12.598;2023-04-08T14:04:22;93080.34;;;8.93
64904;BMP280;51401;48.882;12.598;2023-04-08T14:06:48;93129.53;;;8.68
64904;BMP280;51401;48.882;12.598;2023-04-08T14:09:19;93133.78;;;8.71
64904;BMP280;51401;48.882;12.598;2023-04-08T14:11:45;93137.09;;;8.76
64904;BMP280;51401;48.882;12.598;2023-04-08T14:14:28;93083.59;;;8.72
64904;BMP280;51401;48.882;12.598;2023-04-08T14:16:53;93022.38;;;8.56
64904;BMP280;51401;48.882;12.598;2023-04-08T14:19:19;93117.13;;;8.55